Time;durP1;ratioP1;P1;durP2;ratioP2;P2;SDS_P1;SDS_P2;PMS_P1;PMS_P2;Temp;Humidity;BMP_temperature;BMP_pressure;BME280_temperature;BME280_humidity;BME280_pressure;Samples;Min_cycle;Max_cycle;Signal;HPM_P1;HPM_P2
2022/11/07 00:02:16;;;;;;;14.50;5.90;;;;;;;19.27;60.56;100189.13;5098297;28;20798;-68
2022/11/07 00:04:41;;;;;;;11.63;5.33;;;;;;;19.25;60.72;100194.41;5097492;28;20198;-67
2022/11/07 00:07:07;;;;;;;14.03;5.37;;;;;;;19.25;60.89;100195.22;5100482;28;20189;-68
2022/11/07 00:09:33;;;;;;;13.70;5.47;;;;;;;19.26;60.77;100188.28;5082346;28;20181;-68
2022/11/07 00:11:58;;;;;;;12.97;5.03;;;;;;;19.25;60.72;100195.22;5118453;28;20415;-67
2022/11/07 00:14:24;;;;;;;12.73;6.00;;;;;;;19.27;60.85;100197.72;5100222;28;20199;-67
2022/11/07 00:16:49;;;;;;;12.13;5.50;;;;;;;19.23;60.90;100203.41;5100479;28;20173;-67
2022/11/07 00:19:17;;;;;;;10.23;4.93;;;;;;;19.28;60.88;100200.19;5099767;28;20182;-67
2022/11/07 00:21:42;;;;;;;14.37;6.30;;;;;;;19.23;61.03;100209.13;5065214;28;20242;-67
2022/11/07 00:24:08;;;;;;;13.47;5.90;;;;;;;19.23;61.31;100211.97;5081355;28;20456;-67
2022/11/07 00:26:34;;;;;;;9.77;5.40;;;;;;;19.24;60.87;100210.75;5081387;28;20181;-67
2022/11/07 00:28:59;;;;;;;11.70;5.63;;;;;;;19.25;61.02;100203.81;5100368;28;20208;-67
2022/11/07 00:31:25;;;;;;;10.37;5.13;;;;;;;19.25;61.29;100205.84;5098635;28;20299;-67
2022/11/07 00:33:50;;;;;;;15.03;6.37;;;;;;;19.24;61.03;100205.03;5098938;28;20193;-67
2022/11/07 00:36:23;;;;;;;8.67;4.50;;;;;;;19.20;61.24;100204.13;5100162;28;20167;-67
2022/11/07 00:38:49;;;;;;;11.77;5.10;;;;;;;19.20;61.05;100204.13;5086277;28;20158;-67
2022/11/07 00:41:14;;;;;;;13.67;4.53;;;;;;;19.28;61.03;100205.91;5102607;28;20434;-67
2022/11/07 00:43:40;;;;;;;12.63;5.47;;;;;;;19.28;61.09;100205.09;5102080;28;20224;-67
2022/11/07 00:46:06;;;;;;;12.47;5.27;;;;;;;19.25;61.18;100208.72;5101977;28;20166;-67
2022/11/07 00:48:31;;;;;;;11.80;5.20;;;;;;;19.20;61.37;100209.00;5064941;28;20186;-67
2022/11/07 00:51:03;;;;;;;11.10;4.90;;;;;;;19.23;61.66;100216.88;5079522;28;20420;-67
2022/11/07 00:53:28;;;;;;;11.80;5.37;;;;;;;19.20;61.35;100209.84;5062962;28;20293;-67
2022/11/07 00:55:58;;;;;;;8.53;4.13;;;;;;;19.23;61.34;100214.00;5079702;28;20421;-67
2022/11/07 00:58:24;;;;;;;11.10;5.70;;;;;;;19.21;61.43;100210.69;5063379;28;20171;-67
2022/11/07 01:00:49;;;;;;;10.87;4.87;;;;;;;19.25;61.22;100211.56;5079647;28;20436;-67
2022/11/07 01:06:01;;;;;;;10.73;5.30;;;;;;;19.22;61.41;100216.03;5063813;28;20229;-67
2022/11/07 01:08:26;;;;;;;10.40;5.03;;;;;;;19.25;61.60;100223.84;5061931;28;20826;-67
2022/11/07 01:10:52;;;;;;;10.70;4.80;;;;;;;19.25;61.56;100223.03;5080428;28;20413;-67
2022/11/07 01:13:18;;;;;;;14.03;4.40;;;;;;;19.19;61.67;100219.66;5079720;28;20166;-67
2022/11/07 01:15:43;;;;;;;10.10;4.77;;;;;;;19.24;61.33;100222.22;5079954;28;20171;-67
2022/11/07 01:18:09;;;;;;;14.13;5.40;;;;;;;19.19;61.48;100236.00;5063210;28;20179;-67
2022/11/07 01:20:34;;;;;;;12.80;5.03;;;;;;;19.20;61.55;100238.47;5081154;28;20162;-67
2022/11/07 01:23:00;;;;;;;9.47;4.03;;;;;;;19.21;61.61;100236.44;5080332;28;20449;-67
2022/11/07 01:25:25;;;;;;;16.13;5.30;;;;;;;19.16;61.62;100237.59;5061784;28;20171;-67
2022/11/07 01:27:51;;;;;;;10.67;4.40;;;;;;;19.15;61.64;100235.94;5079669;28;20156;-67
2022/11/07 01:30:16;;;;;;;9.53;4.57;;;;;;;19.22;61.60;100236.06;5080594;28;20163;-67
2022/11/07 01:32:42;;;;;;;10.33;5.03;;;;;;;19.21;61.72;100242.19;5083217;28;20155;-67
2022/11/07 01:35:07;;;;;;;9.07;4.47;;;;;;;19.20;61.65;100244.19;5084095;28;20159;-67
2022/11/07 01:37:33;;;;;;;9.60;4.93;;;;;;;19.18;61.67;100235.19;5084311;28;20169;-67
2022/11/07 01:39:58;;;;;;;12.20;4.77;;;;;;;19.24;61.59;100238.56;5084724;28;20232;-67
2022/11/07 01:42:23;;;;;;;10.33;4.67;;;;;;;19.21;61.53;100240.13;5065376;28;20194;-67
2022/11/07 01:44:51;;;;;;;8.63;4.40;;;;;;;19.20;61.83;100229.88;5049859;28;20185;-67
2022/11/07 01:47:17;;;;;;;9.13;4.07;;;;;;;19.19;61.65;100233.97;5059328;28;20183;-67
2022/11/07 01:49:42;;;;;;;8.90;4.63;;;;;;;19.24;61.94;100229.97;5075546;28;20469;-67
2022/11/07 01:52:15;;;;;;;12.93;5.00;;;;;;;19.21;61.82;100225.00;5074841;28;20187;-67
2022/11/07 01:54:57;;;;;;;10.60;4.93;;;;;;;19.21;61.65;100217.22;5106447;28;20188;-67
2022/11/07 01:57:28;;;;;;;10.80;4.67;;;;;;;19.19;62.14;100222.53;5106734;28;20426;-67
2022/11/07 01:59:53;;;;;;;8.93;4.33;;;;;;;19.17;61.58;100222.06;5089628;28;20405;-67
2022/11/07 02:02:19;;;;;;;9.07;5.20;;;;;;;19.20;61.96;100215.56;5055803;28;20530;-66
2022/11/07 02:04:44;;;;;;;9.27;5.20;;;;;;;19.23;61.62;100226.28;5091484;28;20202;-66
2022/11/07 02:07:17;;;;;;;9.20;4.47;;;;;;;19.19;61.84;100225.38;5076495;28;20167;-65
2022/11/07 02:09:42;;;;;;;9.20;4.33;;;;;;;19.18;61.99;100215.16;5072824;28;20206;-65
2022/11/07 02:12:08;;;;;;;8.37;4.10;;;;;;;19.19;62.11;100215.97;5039772;28;20798;-65
2022/11/07 02:14:33;;;;;;;8.83;4.60;;;;;;;19.21;61.61;100222.94;5074305;28;20174;-65
2022/11/07 02:16:59;;;;;;;9.00;4.03;;;;;;;19.16;61.99;100223.28;5074189;28;20167;-65
2022/11/07 02:19:41;;;;;;;9.57;4.20;;;;;;;19.17;61.78;100219.19;5056265;28;20205;-66
2022/11/07 02:22:12;;;;;;;9.47;5.00;;;;;;;19.20;61.75;100226.19;5062934;28;20182;-66
2022/11/07 02:24:38;;;;;;;9.70;4.80;;;;;;;19.19;61.87;100222.53;5071249;28;20437;-65
2022/11/07 02:27:06;;;;;;;13.80;5.10;;;;;;;19.23;61.53;100231.19;5072063;28;20451;-63
2022/11/07 02:29:32;;;;;;;8.97;3.67;;;;;;;19.16;61.94;100220.41;5073983;28;20182;-63
2022/11/07 02:32:03;;;;;;;10.10;4.40;;;;;;;19.19;61.86;100227.41;5061411;28;20950;-63
2022/11/07 02:34:28;;;;;;;8.87;3.53;;;;;;;19.24;61.63;100227.09;5071944;28;21003;-63
2022/11/07 02:36:54;;;;;;;10.53;4.00;;;;;;;19.24;61.84;100238.56;5072696;28;20417;-63
2022/11/07 02:39:19;;;;;;;9.60;4.60;;;;;;;19.20;61.67;100235.59;5073853;28;20171;-63
2022/11/07 02:41:44;;;;;;;10.50;4.80;;;;;;;19.21;61.94;100231.53;5076113;28;20173;-64
2022/11/07 02:44:10;;;;;;;9.60;4.40;;;;;;;19.20;61.92;100229.03;5078646;28;20564;-64
2022/11/07 02:46:35;;;;;;;8.93;4.40;;;;;;;19.19;62.10;100228.25;5096281;28;20158;-65
2022/11/07 02:49:01;;;;;;;8.30;4.70;;;;;;;19.16;61.94;100229.00;5078942;28;20217;-63
2022/11/07 02:51:26;;;;;;;8.03;3.93;;;;;;;19.17;62.22;100236.38;5111877;28;20621;-64
2022/11/07 02:53:52;;;;;;;9.07;3.77;;;;;;;19.16;62.03;100229.00;5093839;28;20185;-64
2022/11/07 02:56:18;;;;;;;6.87;3.53;;;;;;;19.17;62.01;100230.66;5093787;28;20613;-64
2022/11/07 02:58:43;;;;;;;10.43;4.23;;;;;;;19.20;61.89;100232.75;5058917;28;20548;-64
2022/11/07 03:01:09;;;;;;;8.80;4.50;;;;;;;19.19;61.98;100231.09;5093608;28;20200;-63
2022/11/07 03:03:43;;;;;;;10.30;4.10;;;;;;;19.18;61.92;100238.03;5093294;28;20222;-64
2022/11/07 03:06:12;;;;;;;8.63;4.67;;;;;;;19.19;61.93;100233.13;5075775;28;20561;-64
2022/11/07 03:08:38;;;;;;;8.23;3.90;;;;;;;19.14;62.15;100239.19;5089470;28;20764;-64
2022/11/07 03:11:04;;;;;;;7.83;4.00;;;;;;;19.18;62.11;100238.03;5113792;28;20472;-64
2022/11/07 03:13:29;;;;;;;7.73;3.87;;;;;;;19.16;62.17;100234.72;5095109;28;20158;-64
2022/11/07 03:15:55;;;;;;;9.27;4.27;;;;;;;19.15;62.12;100241.66;5112862;28;20647;-65
2022/11/07 03:18:21;;;;;;;8.00;3.83;;;;;;;19.15;62.14;100240.84;5094351;28;20169;-64
2022/11/07 03:20:46;;;;;;;9.20;3.80;;;;;;;19.15;62.29;100240.84;5094443;28;20162;-64
2022/11/07 03:23:12;;;;;;;9.07;4.33;;;;;;;19.15;62.35;100240.84;5095240;28;20600;-64
2022/11/07 03:25:37;;;;;;;7.00;3.70;;;;;;;19.17;62.52;100238.44;5091970;28;20198;-64
2022/11/07 03:28:02;;;;;;;7.70;3.93;;;;;;;19.16;62.15;100249.03;5092028;28;20179;-64
2022/11/07 03:30:28;;;;;;;8.83;4.37;;;;;;;19.18;62.07;100245.78;5094032;28;20161;-64
2022/11/07 03:32:53;;;;;;;9.37;3.83;;;;;;;19.16;62.18;100248.22;5112297;28;20173;-65
2022/11/07 03:35:19;;;;;;;8.10;4.10;;;;;;;19.17;62.10;100253.53;5113437;28;20162;-64
2022/11/07 03:37:45;;;;;;;6.80;3.30;;;;;;;19.18;62.09;100251.53;5078261;28;20269;-64
2022/11/07 03:40:11;;;;;;;8.70;4.47;;;;;;;19.19;62.19;100251.13;5113219;28;20495;-64
2022/11/07 03:42:38;;;;;;;8.47;3.67;;;;;;;19.17;62.12;100247.81;5091810;28;20209;-64
2022/11/07 03:45:04;;;;;;;7.67;3.80;;;;;;;19.16;62.10;100260.47;5092698;28;20166;-64
2022/11/07 03:47:33;;;;;;;6.83;3.87;;;;;;;19.14;62.17;100250.63;5074391;28;20903;-63
2022/11/07 03:49:58;;;;;;;8.43;4.00;;;;;;;19.14;62.33;100259.22;5074576;28;20468;-64
2022/11/07 03:52:24;;;;;;;9.97;4.80;;;;;;;19.15;62.25;100264.56;5092646;28;20416;-65
2022/11/07 03:54:49;;;;;;;9.80;3.83;;;;;;;19.18;62.09;100269.53;5092150;28;20747;-64
2022/11/07 03:57:15;;;;;;;8.73;4.27;;;;;;;19.15;62.29;100270.28;5092498;28;20178;-63
2022/11/07 03:59:40;;;;;;;7.60;3.70;;;;;;;19.18;62.11;100277.28;5092648;28;20167;-64
2022/11/07 04:02:05;;;;;;;7.90;3.80;;;;;;;19.15;62.17;100276.00;5092601;28;20575;-63
2022/11/07 04:04:31;;;;;;;6.33;3.83;;;;;;;19.17;62.37;100285.03;5092303;28;20654;-64
2022/11/07 04:06:56;;;;;;;8.97;4.30;;;;;;;19.16;62.28;100291.97;5092579;28;20232;-64
2022/11/07 04:09:22;;;;;;;6.77;3.60;;;;;;;19.15;62.34;100281.72;5093083;28;20585;-65
2022/11/07 04:17:18;;;;;;;6.57;4.20;;;;;;;19.13;62.47;100284.16;5097245;28;20422;-64
2022/11/07 04:19:44;;;;;;;8.00;3.70;;;;;;;19.17;62.15;100292.81;5065517;28;20443;-65
2022/11/07 04:22:09;;;;;;;6.07;3.20;;;;;;;19.16;62.24;100288.28;5073653;28;20432;-64
2022/11/07 04:24:35;;;;;;;7.63;3.50;;;;;;;19.17;62.18;100290.75;5092059;28;20447;-64
2022/11/07 04:29:44;;;;;;;6.10;3.10;;;;;;;19.13;62.42;100289.91;5091694;28;20596;-64
2022/11/07 04:32:09;;;;;;;6.23;3.20;;;;;;;19.16;62.44;100289.09;5091224;28;20409;-64
2022/11/07 04:34:35;;;;;;;7.13;3.80;;;;;;;19.14;62.62;100296.41;5091690;28;20223;-64
2022/11/07 04:37:00;;;;;;;7.07;3.97;;;;;;;19.15;62.16;100293.19;5073925;28;20188;-64
2022/11/07 04:39:26;;;;;;;7.00;3.60;;;;;;;19.16;62.29;100288.28;5057052;28;20165;-64
2022/11/07 04:41:51;;;;;;;6.63;3.40;;;;;;;19.14;62.36;100287.84;5091933;28;20233;-64
2022/11/07 04:44:17;;;;;;;6.40;3.47;;;;;;;19.16;62.34;100286.25;5102659;28;20201;-64
2022/11/07 04:46:42;;;;;;;7.43;3.40;;;;;;;19.13;62.31;100284.16;5112174;28;20176;-64
2022/11/07 04:49:07;;;;;;;7.93;3.67;;;;;;;19.12;62.34;100278.81;5105562;28;20226;-63
2022/11/07 04:51:33;;;;;;;8.73;3.90;;;;;;;19.13;62.44;100280.47;5088153;28;20175;-64
2022/11/07 04:53:58;;;;;;;6.70;3.90;;;;;;;19.11;62.72;100275.13;5053489;28;20163;-64
2022/11/07 04:56:24;;;;;;;9.00;4.07;;;;;;;19.17;62.24;100285.03;5037011;28;20179;-64
2022/11/07 04:58:49;;;;;;;5.73;3.20;;;;;;;19.16;62.33;100289.09;5071534;28;20167;-64
2022/11/07 05:01:15;;;;;;;6.70;3.03;;;;;;;19.16;62.49;100289.09;5071120;28;20175;-64
2022/11/07 05:03:40;;;;;;;7.90;3.77;;;;;;;19.16;62.37;100294.03;5070678;28;20219;-64
2022/11/07 05:06:06;;;;;;;5.97;3.37;;;;;;;19.15;62.36;100286.63;5052553;28;20614;-64
2022/11/07 05:08:31;;;;;;;7.17;2.70;;;;;;;19.16;62.30;100288.28;5053345;28;20163;-64
2022/11/07 05:10:57;;;;;;;6.50;3.07;;;;;;;19.16;62.31;100282.56;5071318;28;20159;-65
2022/11/07 05:13:22;;;;;;;7.23;3.87;;;;;;;19.11;62.49;100292.28;5071289;28;20167;-64
2022/11/07 05:15:48;;;;;;;11.53;3.50;;;;;;;19.15;62.47;100304.63;5055460;28;20171;-64
2022/11/07 05:18:13;;;;;;;6.60;3.40;;;;;;;19.13;62.33;100287.03;5053173;28;20630;-64
2022/11/07 05:20:39;;;;;;;6.43;3.00;;;;;;;19.19;62.25;100294.06;5070806;28;20413;-64
2022/11/07 05:23:11;;;;;;;6.20;3.30;;;;;;;19.14;62.35;100288.69;5052910;28;20198;-64
2022/11/07 05:25:37;;;;;;;6.87;3.30;;;;;;;19.15;62.35;100296.03;5038241;28;20163;-64
2022/11/07 05:28:04;;;;;;;6.33;3.30;;;;;;;19.14;62.72;100302.16;5071401;28;20409;-64
2022/11/07 05:30:29;;;;;;;8.30;3.63;;;;;;;19.17;62.54;100307.91;5038681;28;20433;-64
2022/11/07 05:32:55;;;;;;;6.50;3.67;;;;;;;19.17;62.16;100293.59;5071158;28;20524;-64
2022/11/07 05:35:20;;;;;;;6.60;3.23;;;;;;;19.16;62.30;100289.09;5070975;28;20168;-64
2022/11/07 05:37:47;;;;;;;6.30;3.07;;;;;;;19.15;62.45;100293.19;5071022;28;20166;-64
2022/11/07 05:40:13;;;;;;;4.00;2.63;;;;;;;19.16;62.39;100299.75;5070921;28;20186;-64
2022/11/07 05:42:38;;;;;;;6.43;3.43;;;;;;;19.17;62.39;100295.66;5052915;28;20441;-64
2022/11/07 05:45:04;;;;;;;7.40;3.67;;;;;;;19.17;62.37;100296.47;5067832;28;20175;-64
2022/11/07 05:47:29;;;;;;;6.00;3.37;;;;;;;19.16;62.51;100297.69;5071032;28;20226;-64
2022/11/07 05:49:55;;;;;;;6.77;2.90;;;;;;;19.16;62.58;100294.81;5072656;28;20477;-64
2022/11/07 05:52:20;;;;;;;6.40;3.20;;;;;;;19.18;62.41;100303.88;5070897;28;20249;-64
2022/11/07 05:54:46;;;;;;;5.30;2.80;;;;;;;19.19;62.50;100301.81;5070905;28;20171;-64
2022/11/07 05:57:11;;;;;;;4.80;2.77;;;;;;;19.16;62.68;100306.28;5070650;28;20183;-64
2022/11/07 05:59:36;;;;;;;5.70;3.00;;;;;;;19.17;62.29;100301.38;5070945;28;20167;-64
2022/11/07 06:02:02;;;;;;;5.07;3.17;;;;;;;19.19;62.37;100293.22;5070527;28;20160;-64
2022/11/07 06:04:27;;;;;;;5.63;3.10;;;;;;;19.19;62.32;100305.53;5070479;28;20203;-64
2022/11/07 06:06:53;;;;;;;6.47;3.57;;;;;;;19.17;62.44;100307.91;5052875;28;20171;-64
2022/11/07 06:09:18;;;;;;;3.80;2.30;;;;;;;19.16;62.62;100303.41;5070817;28;20168;-64
2022/11/07 06:11:44;;;;;;;6.80;3.37;;;;;;;19.19;62.45;100311.25;5070487;28;20579;-64
2022/11/07 06:14:09;;;;;;;8.70;3.67;;;;;;;19.17;62.61;100312.84;5070451;28;20175;-64
2022/11/07 06:16:35;;;;;;;6.57;3.40;;;;;;;19.16;62.42;100306.28;5071128;28;20171;-64
2022/11/07 06:19:01;;;;;;;4.50;2.83;;;;;;;19.20;62.35;100320.63;5073713;28;20191;-64
2022/11/07 06:21:26;;;;;;;6.03;3.00;;;;;;;19.21;62.26;100314.53;5074031;28;20183;-64
2022/11/07 06:23:51;;;;;;;6.37;3.13;;;;;;;19.18;62.52;100314.47;5060289;28;20480;-64
2022/11/07 06:26:17;;;;;;;5.10;2.90;;;;;;;19.16;62.57;100317.72;5053629;28;20190;-65
2022/11/07 06:28:42;;;;;;;6.93;3.13;;;;;;;19.16;62.45;100312.00;5053427;28;20180;-65
2022/11/07 06:31:08;;;;;;;6.30;3.23;;;;;;;19.15;62.72;100315.25;5053261;28;20171;-66
2022/11/07 06:33:34;;;;;;;6.17;2.87;;;;;;;19.19;62.38;100319.81;5053541;28;20203;-65
2022/11/07 06:36:04;;;;;;;5.60;3.00;;;;;;;19.17;62.59;100319.38;5053134;28;20410;-65
2022/11/07 06:38:29;;;;;;;5.67;3.03;;;;;;;19.20;62.35;100317.78;5035791;28;20207;-65
2022/11/07 06:40:55;;;;;;;4.43;2.30;;;;;;;19.18;62.53;100323.91;5058089;28;20437;-65
2022/11/07 06:43:20;;;;;;;6.47;3.30;;;;;;;19.18;62.62;100323.91;5062046;28;20215;-65
2022/11/07 06:45:46;;;;;;;5.70;3.20;;;;;;;19.19;62.33;100324.72;5035883;28;20194;-65
2022/11/07 06:48:11;;;;;;;5.53;2.57;;;;;;;19.20;62.49;100332.91;5048220;28;20178;-65
2022/11/07 06:50:37;;;;;;;6.03;3.00;;;;;;;19.18;62.56;100323.91;5075382;28;20616;-65
2022/11/07 06:53:05;;;;;;;5.13;2.67;;;;;;;19.21;62.58;100328.84;5048835;28;20635;-65
2022/11/07 06:55:32;;;;;;;5.87;2.73;;;;;;;19.17;62.93;100330.81;5053158;28;20160;-65
2022/11/07 06:57:59;;;;;;;5.50;2.70;;;;;;;19.19;62.49;100336.16;5052502;28;20914;-65
2022/11/07 07:00:25;;;;;;;6.23;3.07;;;;;;;19.17;62.48;100336.53;5056837;28;20502;-65
2022/11/07 07:02:50;;;;;;;4.67;2.77;;;;;;;19.16;62.64;100339.81;5067657;28;20512;-65
2022/11/07 07:05:16;;;;;;;7.80;3.10;;;;;;;19.18;62.47;100349.66;5055871;28;20457;-65
2022/11/07 07:07:41;;;;;;;5.63;3.10;;;;;;;19.20;62.38;100347.22;5061704;28;20194;-65
2022/11/07 07:10:07;;;;;;;5.93;2.90;;;;;;;19.18;62.68;100351.69;5058386;28;20262;-65
2022/11/07 07:12:33;;;;;;;6.40;2.83;;;;;;;19.19;62.52;100350.47;5053102;28;20623;-65
2022/11/07 07:14:58;;;;;;;5.17;2.73;;;;;;;19.21;62.57;100357.47;5053078;28;20426;-66
2022/11/07 07:17:24;;;;;;;4.30;2.17;;;;;;;19.19;62.56;100350.47;5040803;28;20176;-65
2022/11/07 07:19:49;;;;;;;5.80;3.07;;;;;;;19.16;62.57;100352.06;5035306;28;20617;-65
2022/11/07 07:22:15;;;;;;;5.47;2.70;;;;;;;19.20;62.44;100352.97;5057486;28;20853;-65
2022/11/07 07:24:40;;;;;;;5.37;2.70;;;;;;;19.20;62.29;100354.97;5060938;28;20595;-65
2022/11/07 07:27:06;;;;;;;5.03;2.93;;;;;;;19.19;62.67;100357.03;5037756;28;20541;-65
2022/11/07 07:29:31;;;;;;;4.87;2.90;;;;;;;19.23;62.67;100355.09;5056157;28;20298;-65
2022/11/07 07:31:56;;;;;;;7.13;2.73;;;;;;;19.19;62.62;100361.91;5057376;28;20175;-65
2022/11/07 07:34:22;;;;;;;4.77;2.23;;;;;;;19.23;62.37;100369.41;5057892;28;20171;-65
2022/11/07 07:36:47;;;;;;;4.63;2.63;;;;;;;19.23;62.32;100368.56;5057362;28;20183;-65
2022/11/07 07:39:13;;;;;;;5.07;2.80;;;;;;;19.21;62.67;100368.09;5053331;28;20191;-64
2022/11/07 07:41:38;;;;;;;6.10;3.00;;;;;;;19.20;62.67;100361.53;5053028;28;20180;-64
2022/11/07 07:44:04;;;;;;;5.07;2.70;;;;;;;19.21;62.35;100366.06;5056143;28;20633;-65
2022/11/07 07:46:29;;;;;;;6.03;3.00;;;;;;;19.23;62.35;100363.69;5061431;28;20186;-64
2022/11/07 07:48:55;;;;;;;5.27;2.50;;;;;;;19.21;62.56;100360.31;5044959;28;20183;-65
2022/11/07 07:51:20;;;;;;;4.00;2.37;;;;;;;19.20;62.46;100358.69;5063991;28;20491;-64
2022/11/07 07:53:46;;;;;;;7.03;3.27;;;;;;;19.19;62.66;100351.31;5073578;28;20666;-65
2022/11/07 07:56:11;;;;;;;4.27;2.57;;;;;;;19.18;62.56;100358.25;5061195;28;20229;-65
2022/11/07 07:58:37;;;;;;;5.93;2.43;;;;;;;19.20;62.54;100360.69;5080072;28;20182;-65
2022/11/07 08:01:08;;;;;;;4.20;2.17;;;;;;;19.21;62.58;100363.19;5069050;28;20187;-65
2022/11/07 08:03:34;;;;;;;5.70;3.00;;;;;;;19.24;62.28;100367.34;5075133;28;20232;-64
2022/11/07 08:05:59;;;;;;;4.43;2.50;;;;;;;19.25;62.77;100371.84;5065910;28;20428;-65
2022/11/07 08:08:25;;;;;;;5.30;2.57;;;;;;;19.23;62.57;100363.69;5079964;28;20182;-64
2022/11/07 08:10:53;;;;;;;5.50;2.90;;;;;;;19.23;62.49;100362.84;5076612;28;20178;-65
2022/11/07 08:13:23;;;;;;;5.77;2.40;;;;;;;19.20;62.69;100358.69;5074738;28;20171;-65
2022/11/07 08:15:49;;;;;;;4.20;2.40;;;;;;;19.24;62.59;100353.88;5059926;28;20409;-64
2022/11/07 08:18:15;;;;;;;4.97;2.20;;;;;;;19.24;62.44;100364.50;5071590;28;20756;-65
2022/11/07 08:20:40;;;;;;;3.80;2.23;;;;;;;19.23;62.49;100366.53;5075637;28;20190;-64
2022/11/07 08:23:07;;;;;;;5.17;3.00;;;;;;;19.25;62.42;100369.00;5074395;28;20243;-65
2022/11/07 08:25:32;;;;;;;4.90;2.47;;;;;;;19.26;62.45;100365.75;5072887;28;21730;-64
2022/11/07 08:27:58;;;;;;;5.73;2.80;;;;;;;19.25;62.49;100369.84;5073517;28;20429;-65
2022/11/07 08:30:25;;;;;;;6.90;2.80;;;;;;;19.26;62.47;100367.81;5071548;28;20626;-65
2022/11/07 08:32:51;;;;;;;3.60;2.20;;;;;;;19.25;62.46;100366.97;5074186;28;20185;-64
2022/11/07 08:35:16;;;;;;;5.73;2.50;;;;;;;19.26;62.49;100368.63;5059301;28;20918;-65
2022/11/07 08:37:42;;;;;;;6.20;2.83;;;;;;;19.26;62.33;100368.63;5076348;28;20270;-65
2022/11/07 08:40:08;;;;;;;5.10;2.70;;;;;;;19.24;62.52;100373.06;5068228;28;20197;-65
2022/11/07 08:42:33;;;;;;;5.00;2.50;;;;;;;19.28;62.39;100371.94;5064352;28;20203;-64
2022/11/07 08:44:59;;;;;;;4.87;2.80;;;;;;;19.25;62.68;100374.72;5078870;28;20194;-65
2022/11/07 08:47:25;;;;;;;5.80;2.67;;;;;;;19.20;62.85;100375.84;5081069;28;20174;-65
2022/11/07 08:49:51;;;;;;;6.00;2.57;;;;;;;19.26;62.49;100373.53;5073517;28;20689;-65
2022/11/07 08:52:16;;;;;;;4.90;2.57;;;;;;;19.28;62.59;100379.69;5064748;28;20432;-65
2022/11/07 08:54:42;;;;;;;4.37;2.30;;;;;;;19.27;62.30;100376.00;5074438;28;20182;-65
2022/11/07 08:57:07;;;;;;;4.60;2.43;;;;;;;19.25;62.49;100375.56;5086981;28;20178;-64
2022/11/07 08:59:33;;;;;;;4.17;2.17;;;;;;;19.25;62.67;100369.84;5072151;28;20175;-65
2022/11/07 09:01:58;;;;;;;6.10;2.67;;;;;;;19.23;62.99;100380.00;5072060;28;20188;-64
2022/11/07 09:04:23;;;;;;;4.13;2.53;;;;;;;19.23;62.66;100375.13;5080506;28;20203;-65
2022/11/07 09:06:49;;;;;;;5.10;2.80;;;;;;;19.27;62.77;100383.78;5082441;28;20185;-65
2022/11/07 09:09:14;;;;;;;4.00;2.17;;;;;;;19.27;62.58;100386.63;5060936;28;20177;-65
2022/11/07 09:11:41;;;;;;;4.93;2.37;;;;;;;19.23;62.97;100380.00;5070832;28;20217;-65
2022/11/07 09:14:06;;;;;;;5.10;2.73;;;;;;;19.23;62.67;100389.44;5071513;28;20175;-64
2022/11/07 09:16:32;;;;;;;5.60;2.30;;;;;;;19.24;62.63;100384.53;5081543;28;20895;-64
2022/11/07 09:18:57;;;;;;;5.20;2.20;;;;;;;19.24;62.61;100393.13;5064068;28;20707;-65
2022/11/07 09:21:23;;;;;;;5.40;2.37;;;;;;;19.25;62.78;100397.63;5066400;28;20962;-65
2022/11/07 09:23:49;;;;;;;4.83;2.40;;;;;;;19.23;62.71;100375.13;5072752;28;20669;-65
2022/11/07 09:26:14;;;;;;;4.40;2.47;;;;;;;19.23;62.75;100380.00;5070759;28;20179;-65
2022/11/07 09:28:40;;;;;;;4.80;2.37;;;;;;;19.26;62.56;100384.97;5071092;28;20422;-65
2022/11/07 09:31:05;;;;;;;4.83;2.23;;;;;;;19.28;62.34;100386.25;5054496;28;20178;-66
2022/11/07 09:33:31;;;;;;;3.90;2.30;;;;;;;19.26;62.52;100385.78;5072054;28;20163;-65
2022/11/07 09:36:03;;;;;;;4.17;2.13;;;;;;;19.25;62.59;100384.16;5074471;28;20247;-65
2022/11/07 09:38:28;;;;;;;5.53;2.20;;;;;;;19.27;62.38;100381.72;5075872;28;20268;-65
2022/11/07 09:41:23;;;;;;;4.77;2.20;;;;;;;19.29;62.55;100384.19;5057395;28;20858;-65
2022/11/07 09:44:11;;;;;;;5.27;2.90;;;;;;;19.25;62.71;100378.41;5069475;28;20206;-65
2022/11/07 09:46:51;;;;;;;4.63;2.50;;;;;;;19.30;62.37;100385.84;5072248;28;20452;-65
2022/11/07 09:49:32;;;;;;;5.30;2.90;;;;;;;19.28;62.42;100386.25;5072042;28;20979;-64
2022/11/07 09:52:19;;;;;;;3.63;1.83;;;;;;;19.31;62.55;100396.09;5040292;28;20424;-65
2022/11/07 09:54:50;;;;;;;4.90;2.37;;;;;;;19.32;62.17;100395.69;5074915;28;20769;-65
2022/11/07 09:57:17;;;;;;;3.87;2.43;;;;;;;19.31;62.41;100399.78;5056602;28;21312;-65
2022/11/07 09:59:54;;;;;;;3.57;1.83;;;;;;;19.32;62.44;100395.69;5045408;28;20490;-65
2022/11/07 10:02:24;;;;;;;4.80;2.40;;;;;;;19.32;62.50;100406.34;5043263;28;21126;-64
2022/11/07 10:05:01;;;;;;;3.97;2.10;;;;;;;19.33;62.43;100417.41;5063445;28;20444;-64
2022/11/07 10:07:41;;;;;;;4.30;2.40;;;;;;;19.34;62.51;100413.34;5085794;28;20420;-65
2022/11/07 10:10:22;;;;;;;5.10;2.30;;;;;;;19.30;62.66;100408.75;5082650;28;20413;-65
2022/11/07 10:12:59;;;;;;;3.70;2.30;;;;;;;19.28;62.68;100412.00;5058954;28;20412;-65
2022/11/07 10:15:47;;;;;;;4.40;2.20;;;;;;;19.26;63.07;100402.97;5081015;28;20911;-65
2022/11/07 10:18:37;;;;;;;4.30;2.00;;;;;;;19.28;62.77;100406.28;5045228;28;20438;-64
2022/11/07 10:21:09;;;;;;;5.30;2.40;;;;;;;19.30;62.63;100409.59;5054520;28;20912;-65
2022/11/07 10:23:47;;;;;;;4.17;1.80;;;;;;;19.29;62.57;100412.81;5058793;28;20460;-65
2022/11/07 10:26:14;;;;;;;4.30;2.00;;;;;;;19.28;62.68;100414.03;5076068;28;20555;-64
2022/11/07 10:29:10;;;;;;;4.43;2.20;;;;;;;19.27;62.81;100415.25;5075307;28;20413;-64
2022/11/07 10:31:38;;;;;;;3.70;2.03;;;;;;;19.29;63.07;100413.66;5032468;28;20519;-64
2022/11/07 10:34:10;;;;;;;4.37;1.90;;;;;;;19.29;62.75;100407.94;5067795;28;20485;-64
2022/11/07 10:36:36;;;;;;;6.40;2.40;;;;;;;19.30;62.66;100415.31;5053150;28;20416;-64
2022/11/07 10:39:07;;;;;;;3.20;1.80;;;;;;;19.27;62.75;100409.53;5052548;28;20444;-64
2022/11/07 10:41:33;;;;;;;5.10;2.37;;;;;;;19.27;62.84;100416.06;5061980;28;20232;-65
2022/11/07 10:44:08;;;;;;;3.33;1.80;;;;;;;19.32;62.75;100418.59;5049903;28;20461;-64
2022/11/07 10:46:40;;;;;;;4.20;1.93;;;;;;;19.28;62.46;100414.03;5066850;28;20766;-64
2022/11/07 10:49:32;;;;;;;3.97;2.13;;;;;;;19.30;62.72;100415.31;5059373;28;20437;-64
2022/11/07 10:52:09;;;;;;;4.60;2.40;;;;;;;19.29;62.68;100410.81;5058930;28;20448;-64
2022/11/07 10:54:34;;;;;;;6.70;2.40;;;;;;;19.31;62.58;100408.38;5082994;28;20429;-64
2022/11/07 10:57:10;;;;;;;3.77;2.10;;;;;;;19.30;62.77;100405.88;5078592;28;20489;-65
2022/11/07 10:59:36;;;;;;;4.10;2.07;;;;;;;19.29;62.69;100402.22;5076600;28;21075;-65
2022/11/07 11:02:03;;;;;;;5.37;2.43;;;;;;;19.29;62.89;100402.22;5043247;28;20421;-65
2022/11/07 11:04:30;;;;;;;6.40;2.37;;;;;;;19.28;62.80;100397.69;5060711;28;20472;-65
2022/11/07 11:07:05;;;;;;;3.77;2.27;;;;;;;19.30;62.52;100392.41;5068757;28;20429;-64
2022/11/07 11:09:32;;;;;;;3.63;1.93;;;;;;;19.32;62.65;100401.44;5067313;28;20436;-64
2022/11/07 11:12:02;;;;;;;3.87;2.10;;;;;;;19.31;62.52;100394.06;5060050;28;20433;-64
2022/11/07 11:14:27;;;;;;;6.30;2.00;;;;;;;19.29;62.63;100399.34;5072516;28;20417;-64
2022/11/07 11:16:54;;;;;;;5.10;2.33;;;;;;;19.27;62.81;100390.31;5075872;28;20437;-64
2022/11/07 11:19:28;;;;;;;6.13;2.93;;;;;;;19.29;62.62;100390.75;5067518;28;20586;-64
2022/11/07 11:21:54;;;;;;;4.00;1.97;;;;;;;19.28;62.70;100389.13;5059293;28;20520;-64
2022/11/07 11:24:26;;;;;;;4.10;2.40;;;;;;;19.34;62.49;100386.72;5067755;28;20465;-64
2022/11/07 11:26:51;;;;;;;4.70;1.80;;;;;;;19.32;62.35;100395.69;5073611;28;20445;-64
2022/11/07 11:29:43;;;;;;;4.20;2.10;;;;;;;19.30;62.92;100392.41;5049236;28;20469;-64
2022/11/07 11:32:24;;;;;;;3.93;2.03;;;;;;;19.31;62.76;100388.34;5074113;28;20205;-65
2022/11/07 11:35:01;;;;;;;4.70;2.83;;;;;;;19.30;62.77;100380.97;5060452;28;21302;-65
2022/11/07 11:37:26;;;;;;;4.60;2.13;;;;;;;19.32;62.75;100383.44;5071982;28;20427;-65